createdAt,value
2019-05-12T00:01:58.723Z,11.40
2019-05-12T00:07:03.450Z,11.30
2019-05-12T00:12:08.328Z,11.30
2019-05-12T00:17:12.921Z,11.20
2019-05-12T00:22:19.007Z,11.10
2019-05-12T00:27:24.165Z,11.10
2019-05-12T00:32:28.702Z,11.10
2019-05-12T00:37:33.065Z,11.00
2019-05-12T00:42:38.180Z,11.00
2019-05-12T00:47:42.927Z,11.00
2019-05-12T00:52:48.901Z,10.90
2019-05-12T00:57:53.395Z,11.00
2019-05-12T01:02:58.398Z,10.90
2019-05-12T01:08:02.987Z,10.90
2019-05-12T01:13:08.539Z,10.90
2019-05-12T01:18:13.325Z,10.80
2019-05-12T01:23:19.299Z,10.80
2019-05-12T01:28:23.791Z,10.70
2019-05-12T01:33:28.245Z,10.80
2019-05-12T01:38:32.928Z,10.60
2019-05-12T01:43:38.208Z,10.60
2019-05-12T01:48:42.859Z,10.60
2019-05-12T01:53:48.230Z,10.50
2019-05-12T01:58:52.754Z,10.40
2019-05-12T02:03:58.537Z,10.40
2019-05-12T02:09:04.907Z,10.40
2019-05-12T02:14:09.471Z,10.30
2019-05-12T02:19:13.902Z,10.20
2019-05-12T02:24:26.666Z,10.20
2019-05-12T02:29:24.322Z,10.10
2019-05-12T02:34:28.665Z,10.00
2019-05-12T02:39:35.409Z,10.00
2019-05-12T02:44:39.897Z,9.90
2019-05-12T02:49:44.961Z,9.80
2019-05-12T02:54:55.802Z,9.70
2019-05-12T02:59:55.913Z,9.60
2019-05-12T03:05:05.590Z,9.50
2019-05-12T03:10:09.103Z,9.50
2019-05-12T03:15:15.379Z,9.50
2019-05-12T03:20:19.921Z,9.50
2019-05-12T03:25:26.080Z,9.50
2019-05-12T03:30:30.377Z,9.50
2019-05-12T03:35:41.753Z,9.50
2019-05-12T03:40:40.855Z,9.50
2019-05-12T03:45:45.598Z,9.60
2019-05-12T03:50:50.215Z,9.60
2019-05-12T03:55:55.332Z,9.60
2019-05-12T04:00:59.962Z,9.50
2019-05-12T04:06:04.900Z,9.40
2019-05-12T04:11:09.495Z,9.30
2019-05-12T04:16:16.469Z,9.20
2019-05-12T04:21:20.036Z,9.20
2019-05-12T04:26:25.299Z,9.20
2019-05-12T04:31:30.064Z,9.20
2019-05-12T04:36:35.497Z,9.30
2019-05-12T04:41:40.271Z,9.40
2019-05-12T04:46:45.259Z,9.40
2019-05-12T04:51:54.589Z,9.40
2019-05-12T04:56:59.098Z,9.40
2019-05-12T05:02:05.424Z,9.50
2019-05-12T05:07:09.557Z,9.50
2019-05-12T05:12:14.117Z,9.70
2019-05-12T05:17:18.663Z,9.90
2019-05-12T05:22:24.227Z,10.00
2019-05-12T05:27:28.838Z,10.20
2019-05-12T05:32:33.889Z,10.40
2019-05-12T05:37:41.516Z,10.50
2019-05-12T05:42:44.747Z,10.60
2019-05-12T05:47:49.202Z,10.60
2019-05-12T05:52:54.259Z,10.60
2019-05-12T05:57:59.862Z,10.70
2019-05-12T06:03:05.916Z,10.70
2019-05-12T06:08:18.609Z,10.70
2019-05-12T06:13:21.323Z,10.70
2019-05-12T06:18:23.949Z,10.70
2019-05-12T06:23:29.087Z,10.80
2019-05-12T06:28:39.437Z,10.90
2019-05-12T06:33:40.690Z,10.90
2019-05-12T06:38:45.047Z,11.00
2019-05-12T06:43:49.416Z,11.10
2019-05-12T06:48:54.492Z,11.10
2019-05-12T06:54:00.973Z,11.30
2019-05-12T06:59:09.752Z,11.50
2019-05-12T07:04:11.142Z,11.60
2019-05-12T07:09:23.882Z,11.70
2019-05-12T07:14:26.375Z,11.90
2019-05-12T07:19:29.727Z,12.10
2019-05-12T07:24:34.210Z,12.30
2019-05-12T07:29:38.752Z,12.40
2019-05-12T07:34:43.778Z,12.50
2019-05-12T07:39:50.667Z,12.70
2019-05-12T07:44:58.051Z,12.80
2019-05-12T07:50:04.473Z,12.90
2019-05-12T07:55:08.580Z,13.10
2019-05-12T08:00:21.220Z,13.40
2019-05-12T08:05:21.336Z,13.50
2019-05-12T08:10:25.920Z,13.60
2019-05-12T08:15:30.291Z,13.50
2019-05-12T08:20:34.824Z,13.40
2019-05-12T08:25:39.185Z,13.30
2019-05-12T08:30:52.057Z,13.30
2019-05-12T08:35:49.806Z,13.30
2019-05-12T08:40:54.462Z,13.30
2019-05-12T08:46:00.249Z,13.50
2019-05-12T08:51:13.570Z,13.70
2019-05-12T08:56:14.726Z,13.80
2019-05-12T09:01:20.281Z,13.80
2019-05-12T09:06:23.890Z,13.60
2019-05-12T09:11:28.359Z,13.70
2019-05-12T09:16:33.538Z,14.00
2019-05-12T09:21:38.156Z,14.20
2019-05-12T09:26:43.348Z,14.20
2019-05-12T09:31:50.544Z,14.20
2019-05-12T09:36:59.535Z,14.20
2019-05-12T09:42:00.117Z,14.10
2019-05-12T09:47:07.614Z,14.20
2019-05-12T09:52:14.060Z,14.50
2019-05-12T09:57:16.566Z,14.90
2019-05-12T10:02:21.196Z,14.90
2019-05-12T10:07:27.036Z,15.00
2019-05-12T10:12:38.640Z,15.10
2019-05-12T10:17:37.598Z,15.00
2019-05-12T10:22:43.730Z,14.90
2019-05-12T10:33:54.894Z,15.50
2019-05-12T11:06:48.408Z,16.30
2019-05-12T11:11:50.401Z,16.20
2019-05-12T11:16:56.221Z,16.30
2019-05-12T11:22:00.708Z,16.80
2019-05-12T11:45:16.983Z,18.40
2019-05-12T11:50:21.614Z,18.50
2019-05-12T11:55:29.838Z,18.80
2019-05-12T12:00:33.853Z,19.30
2019-05-12T12:05:38.571Z,19.40
2019-05-12T12:10:42.983Z,19.30
2019-05-12T12:15:47.278Z,19.00
2019-05-12T12:20:56.730Z,18.40
2019-05-12T12:25:57.882Z,18.10
2019-05-12T12:31:05.345Z,17.70
2019-05-12T12:36:08.623Z,17.50
2019-05-12T12:41:13.238Z,17.30
2019-05-12T12:46:24.248Z,17.20
2019-05-12T12:51:28.447Z,17.00
2019-05-12T12:56:34.069Z,16.90
2019-05-12T13:01:38.578Z,17.00
2019-05-12T13:06:43.726Z,17.60
2019-05-12T13:11:48.368Z,18.20
2019-05-12T13:16:54.609Z,19.00
2019-05-12T13:22:08.909Z,19.10
2019-05-12T13:27:14.179Z,18.70
2019-05-12T13:32:17.267Z,18.30
2019-05-12T13:37:23.199Z,18.40
2019-05-12T13:42:30.510Z,18.60
2019-05-12T13:47:38.325Z,18.50
2019-05-12T13:52:39.986Z,18.20
2019-05-12T13:57:52.215Z,17.70
2019-05-12T14:02:55.563Z,17.40
2019-05-12T14:07:57.582Z,17.10
2019-05-12T14:13:03.539Z,16.90
2019-05-12T14:18:10.426Z,17.20
2019-05-12T14:23:14.811Z,17.60
2019-05-12T14:28:19.363Z,17.70
2019-05-12T14:33:24.719Z,17.70
2019-05-12T14:38:29.924Z,17.80
2019-05-12T14:43:34.548Z,17.90
2019-05-12T14:48:40.416Z,17.80
2019-05-12T14:53:47.916Z,17.80
2019-05-12T14:58:56.431Z,18.10
2019-05-12T15:03:57.304Z,18.30
2019-05-12T15:09:11.228Z,18.40
2019-05-12T15:14:13.775Z,18.20
2019-05-12T15:19:20.798Z,18.10
2019-05-12T15:24:24.583Z,17.90
2019-05-12T15:29:29.193Z,17.80
2019-05-12T15:34:33.847Z,17.70
2019-05-12T15:39:38.311Z,17.60
2019-05-12T15:44:43.325Z,17.50
2019-05-12T15:49:47.835Z,17.20
2019-05-12T15:54:54.034Z,17.00
2019-05-12T15:59:58.487Z,16.90
2019-05-12T16:05:04.168Z,16.90
2019-05-12T16:10:09.338Z,17.00
2019-05-12T16:15:19.245Z,17.10
2019-05-12T16:20:20.335Z,17.10
2019-05-12T16:25:28.904Z,16.90
2019-05-12T16:30:31.512Z,16.80
2019-05-12T16:35:35.930Z,17.00
2019-05-12T16:40:45.607Z,17.20
2019-05-12T16:45:46.404Z,17.50
2019-05-12T16:50:52.275Z,17.70
2019-05-12T16:55:56.625Z,17.80
2019-05-12T17:01:00.962Z,17.80
2019-05-12T17:06:05.664Z,17.90
2019-05-12T17:11:26.312Z,18.00
2019-05-12T17:16:21.172Z,18.10
2019-05-12T17:21:25.478Z,18.10
2019-05-12T17:26:29.829Z,18.00
2019-05-12T17:31:34.303Z,17.90
2019-05-12T17:36:38.642Z,17.90
2019-05-12T17:41:45.555Z,17.90
2019-05-12T17:46:49.139Z,17.80
2019-05-12T17:51:53.537Z,17.60
2019-05-12T17:56:57.903Z,17.50
2019-05-12T18:02:05.598Z,17.40
2019-05-12T18:07:12.843Z,17.20
2019-05-12T18:12:14.305Z,17.10
2019-05-12T18:17:18.700Z,17.00
2019-05-12T18:22:23.574Z,16.90
2019-05-12T18:27:28.025Z,16.80
2019-05-12T18:32:32.363Z,16.60
2019-05-12T18:43:15.751Z,16.30
2019-05-12T18:48:22.333Z,16.10
2019-05-12T18:53:31.589Z,16.00
2019-05-12T18:58:35.272Z,15.90
2019-05-12T19:09:46.961Z,15.60
2019-05-12T19:14:51.912Z,15.50
2019-05-12T19:20:07.341Z,15.40
2019-05-12T19:25:19.356Z,15.30
2019-05-12T19:30:25.189Z,15.20
2019-05-12T19:35:29.421Z,15.10
2019-05-12T19:40:33.779Z,15.00
2019-05-12T19:45:38.124Z,14.90
2019-05-12T19:57:50.064Z,14.70
2019-05-12T20:09:06.696Z,14.40
2019-05-12T20:14:16.700Z,14.20
2019-05-12T20:19:19.751Z,14.20
2019-05-12T20:24:25.188Z,14.10
2019-05-12T20:35:09.375Z,14.00
2019-05-12T20:40:14.304Z,13.90
2019-05-12T20:45:18.798Z,13.80
2019-05-12T20:50:31.970Z,13.70
2019-05-12T20:55:30.148Z,13.60
2019-05-12T21:00:39.016Z,13.50
2019-05-12T21:05:41.441Z,13.40
2019-05-12T21:10:45.904Z,13.30
2019-05-12T21:16:17.624Z,13.30
2019-05-12T21:21:27.271Z,13.20
2019-05-12T21:26:28.498Z,13.10
2019-05-12T21:31:33.772Z,13.10
2019-05-12T21:36:38.239Z,13.00
2019-05-12T21:41:50.469Z,13.00
2019-05-12T21:47:00.980Z,12.90
2019-05-12T21:51:58.923Z,12.80
2019-05-12T22:03:08.282Z,12.50
2019-05-12T22:08:20.987Z,12.50
2019-05-12T22:13:18.967Z,12.40
2019-05-12T22:18:23.870Z,12.40
2019-05-12T22:23:28.450Z,12.30
2019-05-12T22:28:34.183Z,12.20
2019-05-12T22:33:40.883Z,12.20
2019-05-12T22:38:44.873Z,12.10
2019-05-12T22:43:49.249Z,12.00
2019-05-12T22:48:53.663Z,11.90
2019-05-12T22:54:00.484Z,11.80
2019-05-12T23:05:10.294Z,11.70
2019-05-12T23:10:18.534Z,11.60
2019-05-12T23:15:24.351Z,11.50
2019-05-12T23:20:31.072Z,11.50
2019-05-12T23:25:35.047Z,11.40
2019-05-12T23:30:43.653Z,11.30
2019-05-12T23:35:45.526Z,11.30
2019-05-12T23:40:49.866Z,11.20
2019-05-12T23:45:54.264Z,11.20
2019-05-12T23:50:58.639Z,11.00
2019-05-12T23:56:03.702Z,10.90
